Flight Track Log - Related Links

Times and Time Zones

All times are in EDT time to prevent confusion due to time zone crossing. See the N1560T flight status page for this flight to view local times or setup timezone preferences in your user account.

Time Position Orientation Groundspeed Altitude Reporting Facility
EDT Latitude Longitude Course Direction KTS MPH feet Rate Location/Type
Thu 04:33:28 PM 44.8000 -93.4167 180° South 153 176 2,400  Level Minneapolis TRACON
Thu 04:34:28 PM 44.7667 -93.4167 180° South 174 200 3,000 300 Climbing Minneapolis TRACON
Thu 04:35:28 PM 44.7167 -93.3833 155° Southeast 184 212 3,000  Level Minneapolis TRACON
Thu 04:35:58 PM 44.7019 -93.3592 131° Southeast 182 209 3,000 462 Level Minneapolis Center
Thu 04:37:12 PM 44.6658 -93.3053 133° Southeast 158 182 3,800 441 Climbing Minneapolis Center
Thu 04:38:14 PM 44.6292 -93.2425 129° Southeast 179 206 4,000 97 Climbing Minneapolis Center
Thu 04:39:16 PM 44.6039 -93.1722 117° Southeast 204 235 4,000  Level Minneapolis Center
Thu 04:40:18 PM 44.5786 -93.1022 117° Southeast 203 234 4,000 96 Level Minneapolis Center
Thu 04:41:21 PM 44.5533 -93.0308 116° Southeast 205 236 4,200 912 Climbing Minneapolis Center
Thu 04:42:23 PM 44.5303 -92.9703 118° Southeast 181 208 5,900 1,355 Climbing Minneapolis Center
Thu 04:43:25 PM 44.5036 -92.8969 117° Southeast 179 206 7,000 532 Climbing Minneapolis Center
Thu 04:44:27 PM 44.4747 -92.8203 118° Southeast 221 254 7,000  Level Minneapolis Center
Thu 04:45:29 PM 44.4458 -92.7406 117° Southeast 229 264 7,000 -48 Level Minneapolis Center
Thu 04:46:31 PM 44.4167 -92.6606 117° Southeast 231 266 6,900  Descending Minneapolis Center
Thu 04:47:33 PM 44.3867 -92.5831 118° Southeast 228 262 7,000 48 Climbing Minneapolis Center
Thu 04:48:35 PM 44.3575 -92.5044 117° Southeast 228 262 7,000  Level Minneapolis Center
Thu 04:49:37 PM 44.3206 -92.4103 119° Southeast 230 265 7,000 48 Level Minneapolis Center
Thu 04:50:39 PM 44.2919 -92.3325 117° Southeast 228 262 7,100 48 Climbing Minneapolis Center
Thu 04:51:41 PM 44.2608 -92.2478 117° Southeast 230 265 7,100  Level Minneapolis Center
Thu 04:52:43 PM 44.2308 -92.1700 118° Southeast 230 265 7,100  Level Minneapolis Center
Thu 04:53:45 PM 44.1986 -92.0850 118° Southeast 231 266 7,100  Level Minneapolis Center
Thu 04:54:47 PM 44.1689 -92.0061 118° Southeast 232 267 7,100 -44 Level Minneapolis Center
Thu 04:56:01 PM 44.1364 -91.9211 118° Southeast 233 268 7,000 -219 Descending Minneapolis Center
Thu 04:57:04 PM 44.0983 -91.8217 118° Southeast 235 270 6,600 -672 Descending Minneapolis Center
Thu 04:58:06 PM 44.0664 -91.7397 118° Southeast 242 278 5,600 -968 Descending Minneapolis Center
Thu 04:59:08 PM 44.0336 -91.6539 118° Southeast 231 266 4,600 -774 Descending Minneapolis Center
Thu 05:00:10 PM 44.0053 -91.5803 118° Southeast 226 260 4,000 -290 Descending Minneapolis Center
Thu 05:01:12 PM 43.9786 -91.5114 118° Southeast 196 226 4,000 -290 Level Minneapolis Center
Thu 05:02:14 PM 43.9550 -91.4408 115° Southeast 195 224 3,400 -672 Descending Minneapolis Center
Thu 05:03:17 PM 43.9414 -91.3650 104° East 195 224 2,600 -762 Descending Minneapolis Center
Thu 05:05:00 PM 43.8793 -91.2566 109° East  Level Estimated

Login

Don't have an account? Register now (free) for customized features, flight alerts, and more!